Grand Celebration — C6BP6 — position and weather

sailwx.info

Track history (hours):
 
Tides and Currents Weather Stations Pressure Air Temp Water Temp Dewpoint Dewpoint Depression Visibility Wind Speed Wind Dir Waves Ship Positions

Grand Celebration

Last reported at 2018-Apr-20 11:14 UTC. Time now 2018-Apr-20 12:46 UTC.
Position N 26°46' W 080°02'.

Length 223 m; draft 7.8 m.

Type: Ship. MMSI: 311000328.

Date/timePositionNaut miles runAvg speedWind from/ knotsBaromVisibWave heightAir tempDewpointWater temp
2018-Apr-20 11:14N 26°46' W 080°02'4 8.3
2018-Apr-20 10:44N 26°45' W 079°58'2 7.6
2018-Apr-20 10:26N 26°45' W 079°55'63 2.7
2018-Apr-19 11:25N 26°31' W 078°46'4 6.5
2018-Apr-19 10:51N 26°29' W 078°50'13 7.8
2018-Apr-19 09:11N 26°27' W 079°04'2 0.9
2018-Apr-19 07:16N 26°27' W 079°02'1 0.9
2018-Apr-19 05:58N 26°28' W 079°01'0 0.8
2018-Apr-19 05:25N 26°28' W 079°01'59 5.8
2018-Apr-18 19:21N 26°46' W 080°03'0 0.0
2018-Apr-18 17:20N 26°46' W 080°03'0 0.0
2018-Apr-18 15:10N 26°46' W 080°03'0 0.0
2018-Apr-18 11:25N 26°46' W 080°03'2 5.8
2018-Apr-18 11:00N 26°46' W 080°01'3 6.6
2018-Apr-18 10:30N 26°45' W 079°57'4 7.5
2018-Apr-18 10:00N 26°44' W 079°53'14 8.8
2018-Apr-18 08:25N 26°40' W 079°38'28 8.5
2018-Apr-18 05:07N 26°31' W 079°09'2 8.5
2018-Apr-18 04:56N 26°30' W 079°07'3 5.9
2018-Apr-18 04:25N 26°29' W 079°04'0 0.3
2018-Apr-18 03:31N 26°29' W 079°04'49 1.7
2018-Apr-16 22:27N 26°45' W 079°55'512.0
2018-Apr-16 22:00N 26°46' W 080°01'2 0.2
2018-Apr-16 12:18N 26°46' W 080°03'0 0.0
2018-Apr-16 11:21N 26°46' W 080°03'0 1.4
2018-Apr-16 11:00N 26°46' W 080°03'4 7.2
2018-Apr-16 10:30N 26°46' W 079°59'52 5.8
2018-Apr-16 01:30N 26°29' W 079°04'48 1.8
2018-Apr-14 22:29N 26°44' W 079°54'611.8
2018-Apr-14 21:59N 26°46' W 080°01'2 1.0
2018-Apr-14 19:42N 26°46' W 080°03'0 0.0
2018-Apr-14 19:21N 26°46' W 080°03'0 0.0
2018-Apr-14 11:28N 26°46' W 080°03'3 5.6
2018-Apr-14 11:00N 26°46' W 080°00'3 6.2
2018-Apr-14 10:29N 26°45' W 079°57'2 0.1
2018-Apr-12 22:31N 26°44' W 079°54'013.2
2018-Apr-12 22:31N 26°44' W 079°55'611.3
2018-Apr-12 21:59N 26°46' W 080°01'2 0.2
2018-Apr-12 11:54N 26°46' W 080°03'0 0.0
2018-Apr-12 11:26N 26°46' W 080°03'2 4.4
2018-Apr-12 11:00N 26°46' W 080°01'4 7.4
2018-Apr-12 10:26N 26°45' W 079°56'56 2.1
2018-Apr-11 08:18N 26°30' W 078°57'0 0.5
2018-Apr-11 07:55N 26°30' W 078°57'0 0.4
2018-Apr-11 07:19N 26°30' W 078°57'0 0.2
2018-Apr-11 07:00N 26°30' W 078°57'0 0.7
2018-Apr-11 06:30N 26°30' W 078°57'3 5.7
2018-Apr-11 05:57N 26°31' W 079°00'18 9.0
2018-Apr-11 03:58N 26°36' W 079°20'4 8.5
2018-Apr-11 03:30N 26°37' W 079°24'27 8.1
2018-Apr-11 00:09N 26°45' W 079°53'2 8.3
2018-Apr-10 23:56N 26°45' W 079°55'3 8.0
2018-Apr-10 23:30N 26°46' W 079°59'4 7.2
2018-Apr-10 23:00N 26°46' W 080°03'0 0.2
2018-Apr-10 21:37N 26°46' W 080°03'0 0.0
2018-Apr-10 15:29N 26°46' W 080°03'0 0.0
2018-Apr-10 14:01N 26°46' W 080°03'0 0.0
2018-Apr-10 11:16N 26°46' W 080°03'  
Track history (hours):
 
Tides and Currents Weather Stations Pressure Air Temp Water Temp Dewpoint Dewpoint Depression Visibility Wind Speed Wind Dir Waves Ship Positions

Grand Celebration

Last reported at 2018-Apr-20 11:14 UTC. Time now 2018-Apr-20 12:46 UTC.
Position N 26°46' W 080°02'.

Length 223 m; draft 7.8 m.

Type: Ship. MMSI: 311000328.

Date/timePositionNaut miles runAvg speedWind from/ knotsBaromVisibWave heightAir tempDewpointWater temp
2018-Apr-20 11:14N 26°46' W 080°02'4 8.3
2018-Apr-20 10:44N 26°45' W 079°58'2 7.6
2018-Apr-20 10:26N 26°45' W 079°55'63 2.7
2018-Apr-19 11:25N 26°31' W 078°46'4 6.5
2018-Apr-19 10:51N 26°29' W 078°50'13 7.8
2018-Apr-19 09:11N 26°27' W 079°04'2 0.9
2018-Apr-19 07:16N 26°27' W 079°02'1 0.9
2018-Apr-19 05:58N 26°28' W 079°01'0 0.8
2018-Apr-19 05:25N 26°28' W 079°01'59 5.8
2018-Apr-18 19:21N 26°46' W 080°03'0 0.0
2018-Apr-18 17:20N 26°46' W 080°03'0 0.0
2018-Apr-18 15:10N 26°46' W 080°03'0 0.0
2018-Apr-18 11:25N 26°46' W 080°03'2 5.8
2018-Apr-18 11:00N 26°46' W 080°01'3 6.6
2018-Apr-18 10:30N 26°45' W 079°57'4 7.5
2018-Apr-18 10:00N 26°44' W 079°53'14 8.8
2018-Apr-18 08:25N 26°40' W 079°38'28 8.5
2018-Apr-18 05:07N 26°31' W 079°09'2 8.5
2018-Apr-18 04:56N 26°30' W 079°07'3 5.9
2018-Apr-18 04:25N 26°29' W 079°04'0 0.3
2018-Apr-18 03:31N 26°29' W 079°04'49 1.7
2018-Apr-16 22:27N 26°45' W 079°55'512.0
2018-Apr-16 22:00N 26°46' W 080°01'2 0.2
2018-Apr-16 12:18N 26°46' W 080°03'0 0.0
2018-Apr-16 11:21N 26°46' W 080°03'0 1.4
2018-Apr-16 11:00N 26°46' W 080°03'4 7.2
2018-Apr-16 10:30N 26°46' W 079°59'52 5.8
2018-Apr-16 01:30N 26°29' W 079°04'48 1.8
2018-Apr-14 22:29N 26°44' W 079°54'611.8
2018-Apr-14 21:59N 26°46' W 080°01'2 1.0
2018-Apr-14 19:42N 26°46' W 080°03'0 0.0
2018-Apr-14 19:21N 26°46' W 080°03'0 0.0
2018-Apr-14 11:28N 26°46' W 080°03'3 5.6
2018-Apr-14 11:00N 26°46' W 080°00'3 6.2
2018-Apr-14 10:29N 26°45' W 079°57'2 0.1
2018-Apr-12 22:31N 26°44' W 079°54'013.2
2018-Apr-12 22:31N 26°44' W 079°55'611.3
2018-Apr-12 21:59N 26°46' W 080°01'2 0.2
2018-Apr-12 11:54N 26°46' W 080°03'0 0.0
2018-Apr-12 11:26N 26°46' W 080°03'2 4.4
2018-Apr-12 11:00N 26°46' W 080°01'4 7.4
2018-Apr-12 10:26N 26°45' W 079°56'56 2.1
2018-Apr-11 08:18N 26°30' W 078°57'0 0.5
2018-Apr-11 07:55N 26°30' W 078°57'0 0.4
2018-Apr-11 07:19N 26°30' W 078°57'0 0.2
2018-Apr-11 07:00N 26°30' W 078°57'0 0.7
2018-Apr-11 06:30N 26°30' W 078°57'3 5.7
2018-Apr-11 05:57N 26°31' W 079°00'18 9.0
2018-Apr-11 03:58N 26°36' W 079°20'4 8.5
2018-Apr-11 03:30N 26°37' W 079°24'27 8.1
2018-Apr-11 00:09N 26°45' W 079°53'2 8.3
2018-Apr-10 23:56N 26°45' W 079°55'3 8.0
2018-Apr-10 23:30N 26°46' W 079°59'4 7.2
2018-Apr-10 23:00N 26°46' W 080°03'0 0.2
2018-Apr-10 21:37N 26°46' W 080°03'0 0.0
2018-Apr-10 15:29N 26°46' W 080°03'0 0.0
2018-Apr-10 14:01N 26°46' W 080°03'0 0.0
2018-Apr-10 11:16N 26°46' W 080°03'  

Dump ship's entire track history